createdAt,value
2023-02-22T00:02:34.378Z,99827.13
2023-02-22T00:07:35.981Z,99822.09
2023-02-22T00:12:37.580Z,99829.31
2023-02-22T00:17:39.286Z,99825.78
2023-02-22T00:22:48.932Z,99816.53
2023-02-22T00:27:52.850Z,99817.03
2023-02-22T00:32:56.708Z,99811.00
2023-02-22T00:38:00.780Z,99812.50
2023-02-22T00:43:04.979Z,99816.03
2023-02-22T00:48:08.610Z,99811.41
2023-02-22T00:53:11.426Z,99815.28
2023-02-22T00:58:13.141Z,99815.78
2023-02-22T01:03:17.971Z,99817.69
2023-02-22T01:08:20.082Z,99813.44
2023-02-22T01:13:21.767Z,99809.09
2023-02-22T01:18:23.499Z,99805.22
2023-02-22T01:23:25.156Z,99806.41
2023-02-22T01:28:26.837Z,99802.72
2023-02-22T01:33:28.709Z,99802.66
2023-02-22T01:38:30.352Z,99804.88
2023-02-22T01:43:33.164Z,99801.19
2023-02-22T01:48:51.157Z,99801.50
2023-02-22T01:54:03.596Z,99795.91
2023-02-22T01:59:10.721Z,99793.25
2023-02-22T02:04:20.642Z,99785.66
2023-02-22T02:09:40.582Z,99785.81
2023-02-22T02:14:43.999Z,99786.84
2023-02-22T02:20:13.950Z,99781.78
2023-02-22T02:25:41.454Z,99779.84
2023-02-22T02:31:06.450Z,99773.19
2023-02-22T02:36:22.785Z,99760.81
2023-02-22T02:41:29.940Z,99756.34
2023-02-22T02:46:48.890Z,99766.34
2023-02-22T02:51:54.008Z,99759.41
2023-02-22T02:56:57.809Z,99763.56
2023-02-22T03:02:13.247Z,99757.09
2023-02-22T03:07:28.125Z,99757.03
2023-02-22T03:12:54.524Z,99751.88
2023-02-22T03:18:31.110Z,99750.81
2023-02-22T03:23:37.706Z,99744.91
2023-02-22T03:28:43.091Z,99745.72
2023-02-22T03:33:51.878Z,99744.72
2023-02-22T03:38:55.746Z,99736.50
2023-02-22T03:44:09.476Z,99735.00
2023-02-22T03:49:25.237Z,99740.50
2023-02-22T03:54:28.989Z,99737.91
2023-02-22T03:59:31.877Z,99736.94
2023-02-22T04:04:34.740Z,99735.94
2023-02-22T04:09:37.304Z,99734.53
2023-02-22T04:14:39.300Z,99746.03
2023-02-22T04:19:42.122Z,99732.97
2023-02-22T04:24:44.007Z,99732.34
2023-02-22T04:29:45.828Z,99738.63
2023-02-22T04:34:48.060Z,99727.25
2023-02-22T04:39:49.860Z,99736.34
2023-02-22T04:44:52.500Z,99731.47
2023-02-22T04:49:54.496Z,99726.34
2023-02-22T04:54:56.181Z,99730.94
2023-02-22T04:59:58.050Z,99726.13
2023-02-22T05:05:00.260Z,99735.66
2023-02-22T05:10:02.802Z,99729.31
2023-02-22T05:15:07.179Z,99730.38
2023-02-22T05:20:21.791Z,99734.59
2023-02-22T05:25:24.392Z,99737.06
2023-02-22T05:30:30.056Z,99737.41
2023-02-22T05:35:32.270Z,99735.56
2023-02-22T05:40:34.241Z,99731.84
2023-02-22T05:45:36.285Z,99730.31
2023-02-22T05:50:37.926Z,99734.28
2023-02-22T05:55:40.285Z,99731.22
2023-02-22T06:00:42.111Z,99736.56
2023-02-22T06:05:43.885Z,99735.66
2023-02-22T06:10:45.501Z,99731.41
2023-02-22T06:15:47.184Z,99743.63
2023-02-22T06:20:48.800Z,99738.97
2023-02-22T06:25:50.484Z,99743.38
2023-02-22T06:30:52.418Z,99742.38
2023-02-22T06:35:54.034Z,99749.13
2023-02-22T06:40:55.746Z,99742.72
2023-02-22T06:45:57.389Z,99751.25
2023-02-22T06:50:59.050Z,99755.16
2023-02-22T06:56:00.970Z,99765.84
2023-02-22T07:01:03.914Z,99761.97
2023-02-22T07:06:07.692Z,99768.38
2023-02-22T07:11:09.439Z,99771.22
2023-02-22T07:16:11.112Z,99768.91
2023-02-22T07:21:12.816Z,99764.31
2023-02-22T07:26:14.450Z,99772.78
2023-02-22T07:31:16.566Z,99779.06
2023-02-22T07:36:18.389Z,99776.47
2023-02-22T07:41:20.289Z,99778.84
2023-02-22T07:46:21.970Z,99780.19
2023-02-22T07:51:23.983Z,99775.47
2023-02-22T07:56:25.790Z,99780.44
2023-02-22T08:01:28.493Z,99774.38
2023-02-22T08:06:30.168Z,99767.47
2023-02-22T08:11:31.783Z,99772.41
2023-02-22T08:16:33.517Z,99776.97
2023-02-22T08:21:35.645Z,99771.47
2023-02-22T08:26:37.490Z,99776.63
2023-02-22T08:31:39.267Z,99772.63
2023-02-22T08:36:42.641Z,99764.66
2023-02-22T08:41:44.289Z,99770.44
2023-02-22T08:46:45.931Z,99761.91
2023-02-22T08:51:47.672Z,99758.59
2023-02-22T08:56:49.690Z,99762.38
2023-02-22T09:01:51.732Z,99766.41
2023-02-22T09:06:53.361Z,99757.25
2023-02-22T09:11:54.980Z,99759.50
2023-02-22T09:16:56.690Z,99752.50
2023-02-22T09:22:00.152Z,99755.84
2023-02-22T09:27:04.390Z,99757.41
2023-02-22T09:32:06.184Z,99746.44
2023-02-22T09:37:08.860Z,99741.94
2023-02-22T09:42:31.455Z,99736.13
2023-02-22T09:47:41.781Z,99735.53
2023-02-22T09:52:54.021Z,99729.94
2023-02-22T09:57:59.738Z,99721.97
2023-02-22T10:03:16.454Z,99718.94
2023-02-22T10:08:19.893Z,99715.28
2023-02-22T10:13:39.240Z,99718.22
2023-02-22T10:18:56.375Z,99708.75
2023-02-22T10:24:04.533Z,99712.44
2023-02-22T10:29:06.078Z,99717.16
2023-02-22T10:34:21.084Z,99712.81
2023-02-22T10:39:35.205Z,99706.69
2023-02-22T10:44:38.573Z,99697.66
2023-02-22T10:49:44.042Z,99698.75
2023-02-22T10:54:48.071Z,99688.97
2023-02-22T10:59:52.071Z,99691.97
2023-02-22T11:04:56.543Z,99691.16
2023-02-22T11:10:00.873Z,99682.59
2023-02-22T11:15:18.511Z,99676.31
2023-02-22T11:20:25.416Z,99675.34
2023-02-22T11:25:39.415Z,99678.31
2023-02-22T11:30:44.023Z,99671.09
2023-02-22T11:35:58.446Z,99657.84
2023-02-22T11:41:26.114Z,99659.94
2023-02-22T11:46:34.952Z,99651.84
2023-02-22T11:52:10.730Z,99645.13
2023-02-22T11:57:18.154Z,99636.22
2023-02-22T12:02:30.552Z,99636.25
2023-02-22T12:08:20.024Z,99633.56
2023-02-22T12:13:38.256Z,99634.47
2023-02-22T12:18:53.555Z,99635.72
2023-02-22T12:24:14.454Z,99631.53
2023-02-22T12:29:30.443Z,99624.25
2023-02-22T12:34:41.530Z,99624.03
2023-02-22T12:40:08.481Z,99624.28
2023-02-22T12:45:31.872Z,99617.19
2023-02-22T12:50:35.573Z,99617.13
2023-02-22T12:55:50.911Z,99620.44
2023-02-22T13:01:14.562Z,99612.94
2023-02-22T13:06:27.275Z,99617.03
2023-02-22T13:11:36.271Z,99614.75
2023-02-22T13:16:42.394Z,99610.50
2023-02-22T13:21:55.145Z,99606.69
2023-02-22T13:27:02.073Z,99608.31
2023-02-22T13:32:12.094Z,99605.88
2023-02-22T13:37:47.132Z,99611.63
2023-02-22T13:43:03.661Z,99605.94
2023-02-22T13:48:24.724Z,99599.69
2023-02-22T13:53:54.450Z,99603.47
2023-02-22T13:58:59.413Z,99600.84
2023-02-22T14:04:19.860Z,99600.53
2023-02-22T14:09:45.558Z,99607.50
2023-02-22T14:15:18.789Z,99600.97
2023-02-22T14:20:36.279Z,99595.69
2023-02-22T14:25:42.003Z,99586.06
2023-02-22T14:30:43.792Z,99588.78
2023-02-22T14:35:50.084Z,99572.22
2023-02-22T14:40:53.738Z,99573.94
2023-02-22T14:46:00.360Z,99566.53
2023-02-22T14:51:20.281Z,99567.53
2023-02-22T14:56:36.288Z,99560.13
2023-02-22T15:01:53.179Z,99559.94
2023-02-22T15:07:08.525Z,99549.44
2023-02-22T15:12:18.317Z,99547.84
2023-02-22T15:17:24.653Z,99553.50
2023-02-22T15:22:35.949Z,99541.47
2023-02-22T15:27:38.100Z,99540.34
2023-02-22T15:32:53.248Z,99526.81
2023-02-22T15:38:20.236Z,99532.28
2023-02-22T15:43:24.802Z,99536.28
2023-02-22T15:48:27.677Z,99536.09
2023-02-22T15:53:37.379Z,99529.56
2023-02-22T15:58:39.554Z,99534.19
2023-02-22T16:03:57.583Z,99538.78
2023-02-22T16:09:06.921Z,99540.16
2023-02-22T16:14:31.221Z,99538.19
2023-02-22T16:19:42.033Z,99530.16
2023-02-22T16:24:44.689Z,99529.31
2023-02-22T16:30:23.324Z,99535.06
2023-02-22T16:35:28.901Z,99527.81
2023-02-22T16:40:35.053Z,99531.69
2023-02-22T16:45:36.663Z,99532.56
2023-02-22T16:50:38.285Z,99533.91
2023-02-22T16:55:44.785Z,99532.56
2023-02-22T17:00:46.405Z,99530.94
2023-02-22T17:05:48.067Z,99529.25
2023-02-22T17:10:51.657Z,99532.78
2023-02-22T17:15:55.006Z,99534.94
2023-02-22T17:20:56.775Z,99535.09
2023-02-22T17:26:02.242Z,99542.75
2023-02-22T17:31:04.108Z,99540.06
2023-02-22T17:36:06.324Z,99543.25
2023-02-22T17:41:08.027Z,99534.00
2023-02-22T17:46:09.748Z,99536.44
2023-02-22T17:51:12.127Z,99537.75
2023-02-22T17:56:18.568Z,99538.56
2023-02-22T18:01:25.315Z,99532.50
2023-02-22T18:06:29.998Z,99528.56
2023-02-22T18:11:32.753Z,99523.47
2023-02-22T18:16:34.942Z,99525.84
2023-02-22T18:21:36.594Z,99523.00
2023-02-22T18:26:39.097Z,99520.59
2023-02-22T18:31:40.933Z,99527.13
2023-02-22T18:36:42.607Z,99514.97
2023-02-22T18:41:48.816Z,99519.28
2023-02-22T18:46:50.506Z,99514.09
2023-02-22T18:51:52.112Z,99514.03
2023-02-22T18:56:53.772Z,99514.72
2023-02-22T19:01:55.417Z,99505.66
2023-02-22T19:06:57.690Z,99504.31
2023-02-22T19:11:59.315Z,99503.25
2023-02-22T19:17:02.830Z,99503.25
2023-02-22T19:22:04.447Z,99498.88
2023-02-22T19:27:06.481Z,99498.03
2023-02-22T19:32:12.965Z,99489.38
2023-02-22T19:37:15.357Z,99492.84
2023-02-22T19:42:16.985Z,99489.50
2023-02-22T19:47:18.595Z,99488.06
2023-02-22T19:52:20.194Z,99492.38
2023-02-22T19:57:23.723Z,99494.34
2023-02-22T20:02:27.568Z,99498.63
2023-02-22T20:07:29.306Z,99489.22
2023-02-22T20:12:31.290Z,99484.81
2023-02-22T20:17:32.999Z,99490.56
2023-02-22T20:22:34.680Z,99495.66
2023-02-22T20:27:36.428Z,99492.63
2023-02-22T20:32:38.890Z,99499.03
2023-02-22T20:37:42.640Z,99487.63
2023-02-22T20:42:44.661Z,99493.56
2023-02-22T20:47:46.305Z,99484.41
2023-02-22T20:52:48.023Z,99473.09
2023-02-22T20:57:49.681Z,99471.75
2023-02-22T21:02:51.571Z,99476.97
2023-02-22T21:07:53.918Z,99478.31
2023-02-22T21:12:56.974Z,99479.22
2023-02-22T21:18:00.399Z,99481.41
2023-02-22T21:23:03.030Z,99481.50
2023-02-22T21:28:05.550Z,99477.34
2023-02-22T21:33:07.827Z,99468.94
2023-02-22T21:38:14.445Z,99469.53
2023-02-22T21:43:16.749Z,99462.00
2023-02-22T21:48:18.397Z,99459.06
2023-02-22T21:53:20.271Z,99457.53
2023-02-22T21:58:22.572Z,99458.25
2023-02-22T22:03:24.560Z,99453.91
2023-02-22T22:08:28.034Z,99446.91
2023-02-22T22:13:29.656Z,99454.31
2023-02-22T22:18:31.246Z,99453.75
2023-02-22T22:23:33.281Z,99447.59
2023-02-22T22:28:34.891Z,99447.31
2023-02-22T22:33:37.905Z,99446.34
2023-02-22T22:38:39.576Z,99444.38
2023-02-22T22:43:45.997Z,99446.34
2023-02-22T22:48:47.716Z,99450.00
2023-02-22T22:53:50.637Z,99450.81
2023-02-22T22:58:55.409Z,99453.78
2023-02-22T23:04:01.796Z,99453.63
2023-02-22T23:09:24.506Z,99457.69
2023-02-22T23:14:31.414Z,99461.06
2023-02-22T23:19:35.403Z,99453.91
2023-02-22T23:24:37.338Z,99454.59
2023-02-22T23:29:41.346Z,99453.91
2023-02-22T23:34:42.963Z,99455.84
2023-02-22T23:39:44.628Z,99463.84
2023-02-22T23:44:47.742Z,99467.59
2023-02-22T23:49:50.053Z,99459.50
2023-02-22T23:54:53.907Z,99463.69
2023-02-22T23:59:55.596Z,99452.91
